Terminal Aerodrome Forecast
Issued by NWS Jacksonville, FL

Home | Current Version | Previous Version | Text Only | Print | Product List | Glossary On
Versions: 1 2 3 4 5 6 7 8 9 10 11 12 13 14 15
693
FTUS42 KJAX 302326
TAFJAX
TAF
KJAX 302326Z 3100/3124 25008KT P6SM VCTS FEW040CB SCT060 SCT250
     FM310100 19006KT P6SM FEW045 SCT250
     FM310500 22003KT P6SM SCT150 BKN250
     FM311500 23004KT P6SM SCT025 BKN200
     FM312000 14010G15KT P6SM VCTS SCT035CB BKN050 PROB30 3120/3122
      -TSRA BKN035CB=

USA.gov is the U.S. government's official web portal to all federal, state and local government web resources and services.